Time;durP1;ratioP1;P1;durP2;ratioP2;P2;SDS_P1;SDS_P2;PMS_P1;PMS_P2;Temp;Humidity;BMP_temperature;BMP_pressure;BME280_temperature;BME280_humidity;BME280_pressure;Samples;Min_cycle;Max_cycle;Signal;HPM_P1;HPM_P2
2022/05/03 15:36:14;;;;;;;8.90;3.90;;;;;;;18.24;46.81;100516.34;6131679;22;1438973;-68
2022/05/03 15:39:17;;;;;;;8.20;4.15;;;;;;;18.27;46.13;100516.09;6184754;23;20028;-69
2022/05/03 15:42:25;;;;;;;8.00;4.13;;;;;;;18.26;47.03;100515.25;6185408;23;20109;-69
2022/05/03 15:45:31;;;;;;;14.05;4.30;;;;;;;18.21;48.79;100512.16;6183641;23;20028;-69
2022/05/03 15:48:35;;;;;;;8.73;5.40;;;;;;;18.27;47.36;100521.41;6182539;23;20043;-69
2022/05/03 15:51:41;;;;;;;11.27;4.60;;;;;;;18.27;48.32;100516.09;6185340;23;20101;-69
2022/05/03 15:54:45;;;;;;;7.03;4.28;;;;;;;18.25;49.84;100521.53;6186701;23;20027;-69
2022/05/03 15:57:50;;;;;;;7.63;4.30;;;;;;;18.31;50.68;100517.50;6186337;23;20470;-69
2022/05/03 16:00:54;;;;;;;8.20;3.67;;;;;;;18.39;51.79;100522.16;6187372;23;20383;-69
2022/05/03 16:03:57;;;;;;;10.80;3.85;;;;;;;18.36;50.80;100516.16;6258662;22;20070;-69
2022/05/03 16:07:02;;;;;;;9.77;3.50;;;;;;;18.40;52.45;100518.53;6187409;23;20538;-69
2022/05/03 16:10:07;;;;;;;7.55;3.55;;;;;;;18.30;53.48;100519.31;6185471;23;20447;-68
2022/05/03 16:13:11;;;;;;;6.38;3.72;;;;;;;18.35;53.12;100514.50;6187258;23;20395;-69
2022/05/03 16:16:14;;;;;;;8.30;3.70;;;;;;;18.36;52.76;100510.03;6187409;23;20405;-69
2022/05/03 16:19:19;;;;;;;4.32;3.28;;;;;;;18.39;53.18;100512.41;6185906;23;20028;-69
2022/05/03 16:22:22;;;;;;;8.27;3.50;;;;;;;18.40;54.45;100507.94;6186299;23;20047;-69
2022/05/03 16:25:26;;;;;;;10.00;3.65;;;;;;;18.42;55.71;100513.97;6186079;23;20455;-69
2022/05/03 16:28:30;;;;;;;5.75;3.45;;;;;;;18.44;56.24;100512.00;6186696;23;20078;-69
2022/05/03 16:31:34;;;;;;;6.55;3.10;;;;;;;18.52;55.75;100510.38;6186879;23;20109;-69
2022/05/03 16:34:37;;;;;;;6.53;3.60;;;;;;;18.55;57.00;100509.28;6187438;22;20027;-69
2022/05/03 16:44:28;;;;;;;8.00;3.70;;;;;;;18.83;56.43;100515.72;6180716;23;20395;-71
2022/05/03 16:51:34;;;;;;;7.78;3.53;;;;;;;19.08;54.20;100509.13;6180447;23;20063;-70
2022/05/03 16:55:11;;;;;;;9.38;3.50;;;;;;;19.15;49.09;100510.25;6179927;23;20074;-70
2022/05/03 16:58:29;;;;;;;;;;;;;;;;;;;;;
2022/05/03 17:03:36;;;;;;;;;;;;;;;;;;;;;
2022/05/03 17:07:28;;;;;;;12.40;3.83;;;;;;;19.41;49.33;100507.09;6200957;22;20032;-70
2022/05/03 17:11:40;;;;;;;4.72;2.95;;;;;;;19.34;48.22;100503.31;6175169;23;20626;-70
2022/05/03 17:14:45;;;;;;;11.32;4.00;;;;;;;19.22;51.26;100511.38;6173890;23;20085;-70
2022/05/03 17:17:50;;;;;;;9.85;3.53;;;;;;;19.23;51.72;100507.75;6174264;23;20078;-70
2022/05/03 17:20:53;;;;;;;8.75;3.00;;;;;;;19.12;53.67;100515.81;6173717;23;20078;-70
2022/05/03 17:24:00;;;;;;;11.05;3.60;;;;;;;18.91;55.00;100509.75;6173840;23;20028;-70
2022/05/03 17:27:05;;;;;;;7.03;3.70;;;;;;;18.67;56.39;100518.00;6175497;23;20117;-70
2022/05/03 17:30:11;;;;;;;10.30;3.78;;;;;;;18.56;55.51;100524.19;6176309;23;20048;-70
2022/05/03 17:33:15;;;;;;;5.22;3.10;;;;;;;18.31;55.89;100523.66;6246924;22;20016;-74
2022/05/03 17:36:20;;;;;;;7.72;3.10;;;;;;;18.28;56.22;100518.63;6173535;22;20031;-74
2022/05/03 17:40:18;;;;;;;5.20;2.95;;;;;;;18.20;57.23;100525.53;6174331;23;20051;-70
2022/05/03 17:43:55;;;;;;;4.93;3.10;;;;;;;17.98;58.43;100537.06;6173796;23;20029;-70
2022/05/03 17:47:32;;;;;;;6.30;4.03;;;;;;;17.82;58.93;100533.03;6174239;23;20024;-70
2022/05/03 17:53:52;;;;;;;6.20;3.30;;;;;;;17.67;60.58;100539.56;6229446;22;20081;-69
2022/05/03 17:54:51;;;;;;;11.25;3.40;;;;;;;17.70;60.42;100539.31;6175527;23;20388;-69
2022/05/03 17:57:56;;;;;;;8.88;3.78;;;;;;;17.49;60.41;100546.38;6247327;22;20028;-69
2022/05/03 18:01:04;;;;;;;6.68;2.97;;;;;;;17.22;60.20;100550.25;6174254;23;20067;-69
2022/05/03 18:04:09;;;;;;;7.00;3.47;;;;;;;17.25;61.25;100557.09;6177911;23;20024;-69
2022/05/03 18:07:14;;;;;;;15.30;4.70;;;;;;;16.95;62.72;100561.19;6179085;23;20210;-69
2022/05/03 18:10:19;;;;;;;7.45;3.67;;;;;;;17.02;61.85;100558.91;6177819;23;20396;-69
2022/05/03 18:13:24;;;;;;;9.35;3.78;;;;;;;16.97;61.04;100556.63;6172915;23;20028;-69
2022/05/03 18:16:32;;;;;;;6.38;3.70;;;;;;;16.91;60.40;100559.75;6178431;23;20059;-69
2022/05/03 18:21:27;;;;;;;8.50;3.88;;;;;;;16.87;60.51;100569.69;6222498;22;20027;-69
2022/05/03 18:24:59;;;;;;;10.52;4.07;;;;;;;16.71;61.49;100571.81;6231781;22;20079;-68
2022/05/03 18:28:07;;;;;;;5.55;3.28;;;;;;;16.68;61.34;100569.41;6179742;23;20046;-68
2022/05/03 18:32:36;;;;;;;8.35;3.60;;;;;;;16.48;62.44;100574.44;6179793;23;20024;-68
2022/05/03 18:36:01;;;;;;;11.38;3.72;;;;;;;16.34;61.27;100577.28;6180131;22;20027;-68
2022/05/03 18:39:06;;;;;;;7.18;3.25;;;;;;;16.20;61.88;100575.66;6179096;23;20047;-70
2022/05/03 18:43:05;;;;;;;4.53;3.30;;;;;;;16.11;61.40;100580.78;6179916;23;20024;-69
2022/05/03 18:46:53;;;;;;;6.13;3.38;;;;;;;16.08;61.53;100583.66;6179668;23;20112;-68
2022/05/03 18:50:39;;;;;;;11.02;3.30;;;;;;;15.96;62.42;100588.06;6180140;23;20052;-68
2022/05/03 18:57:35;;;;;;;6.75;4.57;;;;;;;15.46;67.35;100603.91;6231944;22;20072;-68
2022/05/03 19:00:42;;;;;;;5.60;3.83;;;;;;;15.43;67.56;100606.78;6174943;23;20031;-68
2022/05/03 19:03:48;;;;;;;13.32;4.80;;;;;;;15.38;67.45;100610.69;6175487;23;20115;-68
2022/05/03 19:06:55;;;;;;;10.35;4.25;;;;;;;15.18;68.71;100606.81;6246418;22;20032;-68
2022/05/03 19:10:01;;;;;;;7.03;4.32;;;;;;;14.96;68.62;100616.22;6175927;23;20105;-68
2022/05/03 19:13:53;;;;;;;10.73;4.10;;;;;;;14.80;70.41;100620.84;6175521;23;20502;-68
2022/05/03 19:17:02;;;;;;;6.32;3.92;;;;;;;14.75;69.18;100631.72;6175855;23;20092;-68
2022/05/03 19:32:26;;;;;;;6.50;4.22;;;;;;;14.52;67.59;100643.78;6175794;23;20031;-67
2022/05/03 19:35:36;;;;;;;7.20;4.72;;;;;;;14.38;68.50;100651.72;6175135;22;20031;-67
2022/05/03 19:38:40;;;;;;;10.43;4.53;;;;;;;14.26;70.53;100652.50;6243655;22;20031;-67
2022/05/03 19:41:46;;;;;;;10.68;5.07;;;;;;;14.20;71.08;100661.66;6174830;23;20105;-67
2022/05/03 19:44:54;;;;;;;7.55;4.53;;;;;;;14.14;70.40;100660.28;6175000;23;20077;-70
2022/05/03 19:48:02;;;;;;;5.63;3.80;;;;;;;13.95;68.67;100660.63;6175788;23;20028;-68
2022/05/03 19:51:14;;;;;;;9.70;3.67;;;;;;;13.88;68.48;100664.59;6175480;23;20500;-68
2022/05/03 19:54:19;;;;;;;11.43;4.63;;;;;;;13.91;68.25;100660.88;6174202;23;20462;-68
2022/05/03 20:39:15;;;;;;;12.07;4.65;;;;;;;13.02;70.06;100690.88;6151351;23;20029;-69
2022/05/03 20:42:20;;;;;;;14.52;5.13;;;;;;;13.05;69.98;100689.84;6151257;23;20028;-68
2022/05/03 20:45:24;;;;;;;;;;;;;;;13.09;69.16;100691.34;6151795;23;20063;-69
2022/05/03 20:51:52;;;;;;;7.65;5.07;;;;;;;12.93;69.67;100704.53;6151223;23;20055;-69
2022/05/03 20:54:55;;;;;;;7.50;4.80;;;;;;;12.96;69.96;100711.38;6151246;23;20025;-68
2022/05/03 20:58:02;;;;;;;10.85;4.57;;;;;;;12.93;70.78;100722.06;6150284;23;20089;-69
2022/05/03 21:04:34;;;;;;;5.47;4.55;;;;;;;12.79;71.53;100720.22;6151156;23;20032;-68
2022/05/03 21:07:39;;;;;;;6.82;4.28;;;;;;;12.63;72.26;100720.28;6151123;23;20104;-69
2022/05/03 21:10:44;;;;;;;5.47;4.38;;;;;;;12.91;71.27;100723.94;6151021;23;20024;-68
2022/05/03 21:13:48;;;;;;;7.10;5.32;;;;;;;12.74;71.70;100727.53;6150709;23;20550;-69
2022/05/03 21:16:53;;;;;;;13.02;5.10;;;;;;;12.71;71.10;100725.94;6150747;23;20060;-69
2022/05/03 21:20:03;;;;;;;11.35;4.53;;;;;;;12.83;70.81;100732.25;6151086;23;20028;-69
2022/05/03 21:23:11;;;;;;;14.80;5.60;;;;;;;12.71;71.43;100733.81;6151152;23;20048;-68
2022/05/03 21:26:17;;;;;;;7.28;5.18;;;;;;;12.60;71.85;100730.94;6151124;23;20101;-68
2022/05/03 21:29:20;;;;;;;11.15;5.07;;;;;;;12.49;72.00;100734.19;6151057;23;20028;-69
2022/05/03 21:32:25;;;;;;;5.70;4.95;;;;;;;12.54;72.14;100728.69;6150975;23;20029;-69
2022/05/03 21:35:30;;;;;;;8.65;4.85;;;;;;;12.49;72.43;100739.44;6151021;23;20025;-69
2022/05/03 21:38:35;;;;;;;7.60;5.20;;;;;;;12.54;71.93;100741.81;6177017;22;20047;-68
2022/05/03 21:41:39;;;;;;;5.85;4.22;;;;;;;12.37;72.19;100744.53;6180711;23;20028;-68
2022/05/03 21:44:44;;;;;;;8.18;4.50;;;;;;;12.21;72.04;100741.91;6180480;23;20070;-69
2022/05/03 21:47:48;;;;;;;6.85;4.20;;;;;;;12.19;72.69;100749.00;6180695;23;20031;-68
2022/05/03 21:50:54;;;;;;;8.98;4.90;;;;;;;12.24;72.95;100745.22;6180745;23;20028;-68
2022/05/03 21:54:00;;;;;;;11.68;5.18;;;;;;;12.08;73.30;100747.00;6180722;23;20066;-69
2022/05/03 21:57:05;;;;;;;8.88;4.38;;;;;;;11.96;72.17;100745.03;6180641;23;20077;-68
2022/05/03 22:00:12;;;;;;;6.85;4.05;;;;;;;11.89;72.22;100754.16;6180347;23;20471;-68
2022/05/03 22:03:17;;;;;;;7.18;4.45;;;;;;;11.80;72.53;100748.44;6180688;23;20105;-68
2022/05/03 22:06:22;;;;;;;7.35;4.22;;;;;;;11.68;72.96;100751.75;6180545;23;20035;-68
2022/05/03 22:09:29;;;;;;;9.15;3.72;;;;;;;11.72;72.57;100740.16;6180109;23;20104;-69
2022/05/03 22:12:33;;;;;;;4.95;4.13;;;;;;;11.80;72.75;100743.22;6180604;23;20024;-68
2022/05/03 22:15:39;;;;;;;7.55;4.38;;;;;;;11.70;73.25;100744.63;6252251;22;20352;-69
2022/05/03 22:18:44;;;;;;;5.85;4.13;;;;;;;11.57;72.96;100752.28;6180535;23;20516;-68
2022/05/03 22:21:49;;;;;;;9.30;4.22;;;;;;;11.58;72.84;100755.75;6180535;23;20028;-68
2022/05/03 22:24:53;;;;;;;7.93;4.97;;;;;;;11.62;72.90;100762.56;6180358;23;20060;-68
2022/05/03 22:27:58;;;;;;;8.93;4.25;;;;;;;11.57;73.37;100765.38;6180394;23;20028;-68
2022/05/03 22:31:04;;;;;;;8.23;4.07;;;;;;;11.54;73.52;100762.94;6180531;23;20027;-69
2022/05/03 22:34:08;;;;;;;7.03;3.88;;;;;;;11.67;73.24;100768.38;6180136;23;20027;-68
2022/05/03 22:37:13;;;;;;;8.80;4.22;;;;;;;11.91;73.50;100770.66;6180253;22;20105;-69
2022/05/03 22:40:18;;;;;;;7.15;4.60;;;;;;;12.03;72.76;100773.47;6180448;23;20471;-68
2022/05/03 22:43:23;;;;;;;10.48;5.32;;;;;;;11.85;73.84;100775.28;6180194;23;20024;-68
2022/05/03 22:46:28;;;;;;;7.15;4.55;;;;;;;11.88;74.13;100768.22;6180199;23;20062;-68
2022/05/03 22:49:33;;;;;;;6.38;4.50;;;;;;;11.78;74.50;100773.91;6180485;23;20028;-68
2022/05/03 22:52:40;;;;;;;5.40;3.80;;;;;;;11.97;73.24;100768.56;6180435;23;20028;-68
2022/05/03 22:55:45;;;;;;;15.23;4.55;;;;;;;11.80;73.55;100765.94;6180398;23;20023;-68
2022/05/03 22:58:50;;;;;;;9.63;4.40;;;;;;;11.75;74.07;100771.44;6180236;23;20467;-68
2022/05/03 23:01:54;;;;;;;8.55;4.07;;;;;;;11.79;74.29;100770.34;6180313;23;20395;-68
2022/05/03 23:04:59;;;;;;;6.38;4.50;;;;;;;11.77;74.66;100768.72;6180306;23;20086;-68
2022/05/03 23:08:05;;;;;;;8.50;4.32;;;;;;;11.74;75.02;100774.13;6180090;23;20028;-68
2022/05/03 23:11:09;;;;;;;7.03;4.10;;;;;;;11.77;74.83;100769.59;6180481;23;20028;-68
2022/05/03 23:14:13;;;;;;;9.55;4.57;;;;;;;11.80;74.73;100773.81;6179948;23;20055;-69
2022/05/03 23:17:17;;;;;;;7.50;4.50;;;;;;;11.74;75.09;100766.28;6180245;23;20102;-68
2022/05/03 23:20:21;;;;;;;8.98;4.68;;;;;;;11.70;75.41;100770.81;6251889;22;20028;-68
2022/05/03 23:23:25;;;;;;;7.47;4.63;;;;;;;11.66;75.40;100771.94;6180583;23;20369;-68
2022/05/03 23:26:29;;;;;;;5.50;4.05;;;;;;;11.74;75.09;100768.88;6179860;23;20060;-68
2022/05/03 23:29:34;;;;;;;8.05;5.03;;;;;;;11.71;74.95;100767.31;6180153;23;20024;-68
2022/05/03 23:32:39;;;;;;;5.70;4.43;;;;;;;11.76;75.11;100769.66;6180074;23;20025;-68
2022/05/03 23:35:43;;;;;;;5.60;4.28;;;;;;;11.86;74.58;100770.88;6180153;23;20348;-69
2022/05/03 23:38:48;;;;;;;8.68;4.50;;;;;;;11.73;75.41;100759.34;6179627;22;20463;-68
2022/05/03 23:41:53;;;;;;;6.68;4.53;;;;;;;11.71;75.59;100766.44;6179611;23;20024;-69
2022/05/03 23:48:22;;;;;;;9.55;4.72;;;;;;;11.77;75.52;100756.50;6203601;22;20027;-69
2022/05/03 23:51:27;;;;;;;5.88;3.70;;;;;;;11.97;74.80;100752.81;6181683;23;20039;-68
2022/05/03 23:54:32;;;;;;;8.65;4.10;;;;;;;12.08;74.17;100754.84;6181068;23;20020;-68
2022/05/03 23:57:35;;;;;;;;;;;;;;;11.94;74.71;100757.41;6181561;23;20028;-68
